Flight Track Log - Related Links

Times and Time Zones

All times are in EDT time to prevent confusion due to time zone crossing. See the FLG3432 flight status page for this flight to view local times or setup timezone preferences in your user account.


Time Position Orientation Groundspeed Altitude Reporting Facility
EDT Latitude Longitude Course Direction KTS MPH feet Rate Location/Type
Wed 06:26:22 AM 42.7319 -73.8081 284° West 143 165 1,100  Level Boston Center
Wed 06:27:28 AM 42.6961 -73.8383 212° Southwest 203 234 3,400 1,927 Climbing Boston Center
Wed 06:28:39 AM 42.7389 -73.9214 305° West 248 285 5,500 2,336 Climbing Boston Center
Wed 06:29:00 AM 42.8422 -74.3863 283° West  Level FlightAware Approximate
Wed 06:29:39 AM 42.8089 -73.9825 327° Northwest 261 300 8,500  Level Boston Center
Wed 06:30:00 AM 42.8675 -74.5351 304° West  Level FlightAware Approximate
Wed 06:30:39 AM 42.8831 -74.0439 329° Northwest 295 339 11,000  Level Boston Center
Wed 06:31:00 AM 42.9037 -74.6779 284° West  Level FlightAware Approximate
Wed 06:31:39 AM 42.9756 -74.1258 327° Northwest 348 400 13,600  Level Boston Center
Wed 06:32:39 AM 43.0558 -74.1989 326° Northwest 372 428 16,000 2,350 Climbing Boston Center
Wed 06:33:39 AM 43.1144 -74.3200 304° West 364 419 18,300 2,050 Climbing Boston Center
Wed 06:34:39 AM 43.1267 -74.4514 277° West 359 413 20,100 1,800 Climbing Boston Center
Wed 06:35:39 AM 43.1386 -74.6025 276° West 379 436 21,900 1,750 Climbing Boston Center
Wed 06:36:39 AM 43.1500 -74.7594 276° West 404 465 23,600 1,600 Climbing Boston Center
Wed 06:37:39 AM 43.1611 -74.9194 275° West 418 481 25,100 1,450 Climbing Boston Center
Wed 06:38:39 AM 43.1764 -75.0853 277° West 432 497 26,500 1,350 Climbing Boston Center
Wed 06:39:39 AM 43.1867 -75.2564 275° West 444 511 27,800 1,400 Climbing Boston Center
Wed 06:40:39 AM 43.2011 -75.4311 277° West 457 526 29,300 1,450 Climbing Boston Center
Wed 06:41:39 AM 43.2167 -75.6228 276° West 468 539 30,700 1,450 Climbing Boston Center
Wed 06:42:39 AM 43.2306 -75.7972 276° West 463 533 32,200 1,370 Climbing Boston Center
Wed 06:44:21 AM 43.2478 -76.0736 275° West 459 528 34,400 1,185 Climbing Cleveland Center
Wed 06:45:21 AM 43.2606 -76.2467 276° West 459 528 35,400 1,000 Climbing Cleveland Center
Wed 06:46:21 AM 43.2733 -76.4228 276° West 459 528 36,400 1,100 Climbing Cleveland Center
Wed 06:47:21 AM 43.2836 -76.5933 275° West 459 528 37,600 800 Climbing Cleveland Center
Wed 06:48:21 AM 43.2933 -76.7636 275° West 459 528 38,000 200 Climbing Cleveland Center
Wed 06:49:21 AM 43.3031 -76.9372 274° West 459 528 38,000  Level Cleveland Center
Wed 06:50:21 AM 43.3133 -77.1336 274° West 459 528 38,000  Level Cleveland Center
Wed 06:51:21 AM 43.3247 -77.3100 275° West 459 528 38,000  Level Cleveland Center
Wed 06:52:21 AM 43.3339 -77.4892 274° West 459 528 38,000  Level Cleveland Center
Wed 06:53:21 AM 43.3467 -77.6686 276° West 464 534 38,000  Level Cleveland Center
Wed 06:54:21 AM 43.3553 -77.8453 274° West 464 534 38,000  Level Cleveland Center
Wed 06:55:21 AM 43.3656 -78.0247 275° West 469 540 38,000  Level Cleveland Center
Wed 06:56:21 AM 43.3944 -78.1978 283° West 469 540 38,000  Level Cleveland Center
Wed 06:57:21 AM 43.4228 -78.3708 283° West 469 540 38,000  Level Cleveland Center
Wed 06:58:21 AM 43.4511 -78.5472 283° West 469 540 38,000  Level Cleveland Center
Wed 06:59:21 AM 43.4769 -78.7239 281° West 469 540 38,000  Level Cleveland Center
Wed 06:59:58 AM 43.4833 -78.8000 277° West 470 541 38,000  Level Toronto Center
Wed 07:00:58 AM 43.5167 -78.9833 284° West 470 541 38,000  Level Toronto Center
Wed 07:01:58 AM 43.5333 -79.1667 277° West 470 541 38,000  Level Toronto Center
Wed 07:02:58 AM 43.5667 -79.3333 285° West 470 541 38,000  Level Toronto Center
Wed 07:03:58 AM 43.5833 -79.5000 278° West 460 529 38,000  Level Toronto Center
Wed 07:04:58 AM 43.6167 -79.6833 284° West 470 541 38,000  Level Toronto Center
Wed 07:05:58 AM 43.6500 -79.8667 284° West 470 541 38,000  Level Toronto Center
Wed 07:06:58 AM 43.6667 -80.0167 279° West 460 529 38,000  Level Toronto Center
Wed 07:07:58 AM 43.7000 -80.2167 283° West 470 541 38,000  Level Toronto Center
Wed 07:08:58 AM 43.7167 -80.4000 277° West 460 529 38,000  Level Toronto Center
Wed 07:09:58 AM 43.7500 -80.5500 287° West 460 529 38,000  Level Toronto Center
Wed 07:10:58 AM 43.7667 -80.7333 277° West 460 529 38,000  Level Toronto Center
Wed 07:11:58 AM 43.7833 -80.9000 278° West 470 541 38,000  Level Toronto Center
Wed 07:12:58 AM 43.8167 -81.0833 284° West 460 529 38,000  Level Toronto Center
Wed 07:13:58 AM 43.8333 -81.2500 278° West 460 529 38,000  Level Toronto Center
Wed 07:14:58 AM 43.8667 -81.4333 284° West 460 529 38,000  Level Toronto Center
Wed 07:15:58 AM 43.8833 -81.6167 277° West 460 529 38,000  Level Toronto Center
Wed 07:16:58 AM 43.9167 -81.7833 286° West 460 529 38,000  Level Toronto Center
Wed 07:17:58 AM 43.9167 -81.9667 270° West 460 529 38,000  Level Toronto Center
Wed 07:18:58 AM 43.9500 -82.1333 286° West 460 529 38,000  Level Toronto Center
Wed 07:19:58 AM 43.9667 -82.3167 277° West 460 529 38,000  Level Toronto Center
Wed 07:20:58 AM 44.0000 -82.4833 286° West 460 529 38,000  Level Toronto Center
Wed 07:22:12 AM 44.0403 -82.7117 284° West 463 533 38,000  Level Minneapolis Center
Wed 07:23:13 AM 44.0628 -82.8869 280° West 463 533 38,000  Level Minneapolis Center
Wed 07:24:14 AM 44.0875 -83.0611 281° West 461 531 38,000  Level Minneapolis Center
Wed 07:25:26 AM 44.1106 -83.2356 280° West 460 529 38,000  Level Minneapolis Center
Wed 07:26:27 AM 44.1386 -83.4450 281° West 461 531 38,000  Level Minneapolis Center
Wed 07:27:28 AM 44.1606 -83.6189 280° West 458 527 38,000  Level Minneapolis Center
Wed 07:28:29 AM 44.1836 -83.7928 281° West 458 527 38,000  Level Minneapolis Center
Wed 07:29:30 AM 44.2067 -83.9678 280° West 460 529 38,000  Level Minneapolis Center
Wed 07:30:31 AM 44.2289 -84.1417 280° West 459 528 38,000  Level Minneapolis Center
Wed 07:31:31 AM 44.2464 -84.2811 280° West 457 526 38,000  Level Minneapolis Center
Wed 07:32:32 AM 44.2714 -84.4897 280° West 457 526 38,000  Level Minneapolis Center
Wed 07:33:33 AM 44.2922 -84.6636 280° West 455 524 38,000  Level Minneapolis Center
Wed 07:35:47 AM 44.3433 -85.0819 280° West 456 525 38,000  Level Minneapolis Center
Wed 07:36:48 AM 44.3642 -85.2558 280° West 455 524 38,000  Level Minneapolis Center
Wed 07:37:49 AM 44.3828 -85.4317 278° West 456 525 38,000  Level Minneapolis Center
Wed 07:38:50 AM 44.4028 -85.6061 279° West 456 525 38,000  Level Minneapolis Center
Wed 07:39:51 AM 44.4222 -85.7808 279° West 454 522 38,000  Level Minneapolis Center
Wed 07:40:52 AM 44.4411 -85.9567 279° West 455 524 38,000  Level Minneapolis Center
Wed 07:41:53 AM 44.4589 -86.1336 278° West 455 524 38,000  Level Minneapolis Center
Wed 07:42:54 AM 44.4794 -86.3092 279° West 453 521 38,000  Level Minneapolis Center
Wed 07:43:55 AM 44.4967 -86.4867 278° West 457 526 38,000  Level Minneapolis Center
Wed 07:44:56 AM 44.5150 -86.6617 278° West 454 522 38,000  Level Minneapolis Center
Wed 07:45:57 AM 44.5325 -86.8347 278° West 450 518 38,000  Level Minneapolis Center
Wed 07:46:58 AM 44.5503 -87.0100 278° West 453 521 38,000  Level Minneapolis Center
Wed 07:48:00 AM 44.5667 -87.1836 278° West 450 518 38,000  Level Minneapolis Center
Wed 07:49:01 AM 44.5836 -87.3575 278° West 450 518 38,000  Level Minneapolis Center
Wed 07:50:02 AM 44.6000 -87.5308 278° West 451 519 38,000  Level Minneapolis Center
Wed 07:51:03 AM 44.6186 -87.7369 277° West 446 513 38,000  Level Minneapolis Center
Wed 07:52:04 AM 44.6350 -87.9089 278° West 444 511 38,000  Level Minneapolis Center
Wed 07:53:06 AM 44.6492 -88.0778 277° West 437 503 38,000  Level Minneapolis Center
Wed 07:54:07 AM 44.6644 -88.2478 277° West 439 505 38,000  Level Minneapolis Center
Wed 07:55:08 AM 44.6789 -88.4169 277° West 437 503 38,000  Level Minneapolis Center
Wed 07:56:09 AM 44.6928 -88.5850 277° West 435 501 38,000  Level Minneapolis Center
Wed 07:57:11 AM 44.7069 -88.7511 277° West 432 497 38,000  Level Minneapolis Center
Wed 07:58:12 AM 44.7200 -88.9175 276° West 430 495 38,000  Level Minneapolis Center
Wed 07:59:13 AM 44.7336 -89.0842 277° West 429 494 38,000 -537 Level Minneapolis Center
Wed 08:00:15 AM 44.7489 -89.2789 276° West 430 495 36,900 -1,024 Descending Minneapolis Center
Wed 08:01:16 AM 44.7611 -89.4492 276° West 436 502 35,900 -984 Descending Minneapolis Center
Wed 08:02:17 AM 44.7744 -89.6169 276° West 434 499 34,900 -984 Descending Minneapolis Center
Wed 08:03:18 AM 44.7861 -89.7836 276° West 431 496 33,900 -976 Descending Minneapolis Center
Wed 08:04:20 AM 44.7986 -89.9503 276° West 428 493 32,900 -927 Descending Minneapolis Center
Wed 08:05:21 AM 44.8103 -90.1144 276° West 425 489 32,000 -439 Descending Minneapolis Center
Wed 08:06:23 AM 44.8222 -90.2786 276° West 422 486 32,000  Level Minneapolis Center
Wed 08:07:24 AM 44.8564 -90.4508 286° West 415 478 32,000  Level Minneapolis Center
Wed 08:08:25 AM 44.9533 -90.5397 327° Northwest 428 493 32,000 -390 Level Minneapolis Center
Wed 08:09:27 AM 45.0589 -90.6100 335° Northwest 429 494 31,200 -976 Descending Minneapolis Center
Wed 08:10:28 AM 45.0856 -90.7619 284° West 407 468 30,000 -1,268 Descending Minneapolis Center
Wed 08:11:30 AM 45.0847 -90.9197 270° West 427 491 28,600 -1,707 Descending Minneapolis Center
Wed 08:12:31 AM 45.0767 -91.1211 267° West 429 494 26,500 -2,000 Descending Minneapolis Center
Wed 08:13:33 AM 45.0761 -91.2831 270° West 420 483 24,500 -1,951 Descending Minneapolis Center
Wed 08:14:34 AM 45.0717 -91.4378 268° West 404 465 22,500 -1,770 Descending Minneapolis Center
Wed 08:15:35 AM 45.0686 -91.5578 268° West 392 451 20,900 -1,951 Descending Minneapolis Center
Wed 08:16:37 AM 45.0656 -91.7364 269° West 382 440 18,500 -2,032 Descending Minneapolis Center
Wed 08:17:39 AM 45.0617 -91.8814 268° West 374 430 16,700 -1,854 Descending Minneapolis Center
Wed 08:18:40 AM 45.0575 -92.0258 268° West 370 426 14,700 -2,195 Descending Minneapolis Center
Wed 08:19:42 AM 45.0519 -92.1961 267° West 364 419 12,200 -1,790 Descending Minneapolis Center
Wed 08:20:44 AM 45.0431 -92.3339 265° West 356 410 11,000 -927 Descending Minneapolis Center
Wed 08:21:45 AM 45.0211 -92.4564 256° West 324 373 10,300 -829 Descending Minneapolis Center
Wed 08:22:47 AM 44.9744 -92.5419 232° Southwest 276 318 9,300 -1,073 Descending Minneapolis Center
Wed 08:23:48 AM 44.9300 -92.6292 234° Southwest 273 314 8,100 -1,073 Descending Minneapolis Center
Wed 08:24:50 AM 44.8853 -92.7139 233° Southwest 270 311 7,100 -706 Descending Minneapolis Center
Wed 08:26:04 AM 44.8411 -92.7997 234° Southwest 271 312 6,500 -882 Descending Minneapolis Center
Wed 08:27:06 AM 44.8192 -92.9356 257° West 271 312 5,100 -1,220 Descending Minneapolis Center
Wed 08:28:07 AM 44.8219 -93.0278 272° West 240 276 4,000 -1,082 Descending Minneapolis Center

Login

Don't have an account? Register now (free) for customized features, flight alerts, and more!